< Typhoon 196912 1969 Season Typhoon 196914 >
Typhoon 196913 (GRACE)
General InformationTrack Information on Google Maps || Disaster Info.ResourceGoogle EarthGE AnimationAtom FeedGeoJSON
Detalied Best Track (Time Zone = UTC)
Year Month Day Hour Lat. Long. Pressure (hPa) Wind (kt) Class Image Chart
1969 9 28 00 23.2 162.5 1010 0 2 -- Chart
1969 9 28 06 23.4 162.6 1010 0 2 -- Chart
1969 9 28 12 23.6 162.7 1010 0 2 -- Chart
1969 9 28 18 23.8 162.9 1010 0 2 -- Chart
1969 9 29 00 23.9 162.9 1008 0 2 -- Chart
1969 9 29 06 24.0 163.1 1002 0 2 -- Chart
1969 9 29 12 24.3 163.4 996 0 2 -- Chart
1969 9 29 18 24.5 163.6 990 0 9 -- Chart
1969 9 30 00 25.0 163.9 985 0 9 -- Chart
1969 9 30 06 25.5 164.4 980 0 9 -- Chart
1969 9 30 12 26.2 164.8 970 0 9 -- Chart
1969 9 30 18 26.8 165.6 960 0 9 -- Chart
1969 10 1 00 26.3 166.4 950 0 9 -- Chart
1969 10 1 06 26.3 166.2 955 0 9 -- Chart
1969 10 1 12 26.1 166.5 960 0 9 -- Chart
1969 10 1 18 26.0 166.0 965 0 9 -- Chart
1969 10 2 00 25.6 165.3 965 0 9 -- Chart
1969 10 2 06 24.9 164.0 965 0 9 -- Chart
1969 10 2 12 24.4 162.6 960 0 9 -- Chart
1969 10 2 18 24.2 161.4 960 0 9 -- Chart
1969 10 3 00 23.7 159.7 955 0 9 -- Chart
1969 10 3 06 23.6 157.5 950 0 9 -- Chart
1969 10 3 12 24.4 155.4 945 0 9 -- Chart
1969 10 3 18 24.5 153.7 940 0 9 -- Chart
1969 10 4 00 24.8 152.7 940 0 9 -- Chart
1969 10 4 06 25.6 151.6 945 0 9 -- Chart
1969 10 4 12 26.2 150.8 945 0 9 -- Chart
1969 10 4 18 26.9 150.2 940 0 9 -- Chart
1969 10 5 00 28.1 149.9 940 0 9 -- Chart
1969 10 5 06 29.3 150.3 945 0 9 -- Chart
1969 10 5 12 30.0 151.6 950 0 9 -- Chart
1969 10 5 18 30.5 153.1 955 0 9 -- Chart
1969 10 6 00 31.3 154.9 965 0 9 -- Chart
1969 10 6 06 32.3 157.6 970 0 9 -- Chart
1969 10 6 12 32.5 159.7 975 0 9 -- Chart
1969 10 6 18 32.9 161.9 985 0 9 -- Chart
1969 10 7 00 33.5 164.0 990 0 9 -- Chart
1969 10 7 06 34.7 166.5 990 0 9 -- Chart
1969 10 7 12 36.1 169.0 990 0 9 -- Chart
1969 10 7 18 36.9 174.9 990 0 9 -- Chart
1969 10 8 00 37.3 180.8 996 0 9 -- Chart
Japan Meteorological Agency Best Track Data | Correction Date : 1991-07-16
< Typhoon 196912 1969 Season Typhoon 196914 >

Help